Terminal Aerodrome Forecast
Issued by NWS

Home | Current Version | Previous Version | Text Only | Print | Product List | Glossary On
Versions: 1 2 3 4 5 6 7 8 9 10 11 12 13 14 15 16 17 18 19 20 21 22 23 24
000
FTUS41 KPBZ 301100
TAFHLG
TAF
KHLG 301120Z 3012/3112 30015G23KT P6SM -SHSN OVC025
      TEMPO 3012/3014 4SM -SHSN BKN010
     FM301500 31012G24KT P6SM OVC025
     FM310300 29009KT P6SM SCT020=

USA.gov is the U.S. government's official web portal to all federal, state and local government web resources and services.